Time;durP1;ratioP1;P1;durP2;ratioP2;P2;SDS_P1;SDS_P2;PMS_P1;PMS_P2;Temp;Humidity;BMP_temperature;BMP_pressure;BME280_temperature;BME280_humidity;BME280_pressure;Samples;Min_cycle;Max_cycle;Signal;HPM_P1;HPM_P2
2022/01/02 00:00:19;;;;;;;4.70;4.20;;;;;;;13.10;74.42;101240.81;5079759;28;20418;-67
2022/01/02 00:02:59;;;;;;;5.53;4.70;;;;;;;13.22;74.12;101237.41;5079156;28;20422;-68
2022/01/02 00:05:24;;;;;;;5.00;4.50;;;;;;;12.99;74.77;101242.47;5079417;28;20464;-68
2022/01/02 00:07:57;;;;;;;5.60;4.73;;;;;;;13.00;74.78;101249.44;5079090;28;20463;-68
2022/01/02 00:10:24;;;;;;;4.93;4.53;;;;;;;12.83;75.63;101230.09;5080120;28;20543;-66
2022/01/02 00:12:52;;;;;;;5.20;4.70;;;;;;;12.90;75.19;101222.31;5080387;28;20482;-67
2022/01/02 00:15:20;;;;;;;5.13;4.63;;;;;;;12.81;75.49;101235.31;5082990;28;20411;-68
2022/01/02 00:17:45;;;;;;;5.10;4.30;;;;;;;12.76;75.19;101239.66;5079942;28;20550;-67
2022/01/02 00:20:13;;;;;;;7.63;5.00;;;;;;;12.63;75.95;101225.59;5080286;28;20452;-67
2022/01/02 00:22:41;;;;;;;5.30;4.53;;;;;;;12.83;75.43;101230.09;5078995;28;20179;-68
2022/01/02 00:25:22;;;;;;;5.33;4.50;;;;;;;13.10;74.37;101230.31;5080025;28;20416;-67
2022/01/02 00:27:47;;;;;;;8.73;4.67;;;;;;;13.22;73.72;101233.88;5079444;28;20763;-68
2022/01/02 00:30:12;;;;;;;6.17;5.40;;;;;;;13.12;74.17;101228.63;5078736;28;20393;-67
2022/01/02 00:32:38;;;;;;;6.47;4.77;;;;;;;13.04;74.51;101230.28;5079863;28;20192;-67
2022/01/02 00:35:04;;;;;;;5.63;5.13;;;;;;;12.89;74.96;101227.56;5079616;28;20173;-66
2022/01/02 00:37:29;;;;;;;8.50;4.97;;;;;;;12.84;75.26;101234.47;5079394;28;20169;-68
2022/01/02 00:39:54;;;;;;;5.47;4.73;;;;;;;12.87;75.09;101229.28;5080097;28;20407;-68
2022/01/02 00:42:31;;;;;;;7.37;4.60;;;;;;;12.70;75.86;101231.75;5078543;28;20184;-67
2022/01/02 00:45:08;;;;;;;5.30;4.60;;;;;;;12.57;76.24;101222.91;5079169;28;20179;-67
2022/01/02 00:47:58;;;;;;;5.10;4.67;;;;;;;12.67;76.13;101214.28;5081081;28;20468;-68
2022/01/02 00:50:33;;;;;;;6.60;4.83;;;;;;;12.87;75.90;101196.16;5086602;28;20442;-67
2022/01/02 00:52:59;;;;;;;6.03;4.80;;;;;;;12.91;75.56;101197.06;5078719;28;20517;-67
2022/01/02 00:55:25;;;;;;;5.73;5.23;;;;;;;13.01;75.65;101204.09;5078582;28;20550;-67
2022/01/02 00:57:57;;;;;;;8.03;5.53;;;;;;;13.34;74.34;101189.47;5079201;28;20197;-66
2022/01/02 01:00:23;;;;;;;8.87;5.83;;;;;;;13.10;75.24;101177.09;5079194;28;20671;-67
2022/01/02 01:02:51;;;;;;;7.00;5.00;;;;;;;13.01;75.66;101177.91;5079236;28;20815;-67
2022/01/02 01:05:22;;;;;;;6.43;4.93;;;;;;;13.08;75.51;101178.81;5078822;28;20686;-67
2022/01/02 01:07:50;;;;;;;7.60;5.13;;;;;;;12.80;76.20;101178.66;5078815;28;20505;-67
2022/01/02 01:10:15;;;;;;;6.67;5.60;;;;;;;12.83;76.11;101167.31;5078056;28;20412;-68
2022/01/02 01:12:41;;;;;;;6.83;5.07;;;;;;;12.36;77.56;101164.31;5078707;28;20411;-68
2022/01/02 01:15:07;;;;;;;9.07;5.60;;;;;;;12.76;76.70;101176.88;5078947;28;20176;-67
2022/01/02 01:17:35;;;;;;;8.67;5.53;;;;;;;12.61;76.97;101173.28;5078658;28;20628;-66
2022/01/02 01:20:01;;;;;;;9.80;5.43;;;;;;;12.64;77.36;101173.28;5077646;28;20416;-66
2022/01/02 01:22:26;;;;;;;5.53;5.03;;;;;;;12.73;77.00;101177.72;5078105;28;20407;-67
2022/01/02 01:24:51;;;;;;;6.90;5.10;;;;;;;12.41;78.04;101180.06;5078733;28;20192;-68
2022/01/02 01:27:17;;;;;;;7.90;5.77;;;;;;;12.34;78.40;101159.94;5078619;28;20239;-68
2022/01/02 01:29:42;;;;;;;8.33;6.13;;;;;;;12.52;77.93;101152.25;5079065;28;20402;-67
2022/01/02 01:32:09;;;;;;;5.73;5.03;;;;;;;12.74;77.05;101148.06;5077518;28;20502;-67
2022/01/02 01:34:34;;;;;;;7.53;5.47;;;;;;;12.55;77.77;101135.72;5078379;28;20177;-67
2022/01/02 01:37:00;;;;;;;6.50;5.10;;;;;;;12.43;78.08;101128.66;5078304;28;20407;-67
2022/01/02 01:39:26;;;;;;;5.97;5.43;;;;;;;12.57;78.02;101121.81;5078269;28;20181;-67
2022/01/02 01:41:53;;;;;;;6.57;5.93;;;;;;;12.82;76.76;101119.34;5078448;28;20215;-66
2022/01/02 01:46:45;;;;;;;6.23;5.63;;;;;;;12.69;77.34;101117.50;5078101;28;20561;-67
2022/01/02 01:49:19;;;;;;;9.07;6.70;;;;;;;12.68;77.73;101129.72;5078538;28;20439;-67
2022/01/02 01:51:44;;;;;;;6.47;5.77;;;;;;;12.43;78.25;101134.78;5078512;28;20430;-66
2022/01/02 01:54:10;;;;;;;7.23;6.03;;;;;;;12.58;77.94;101131.41;5077790;28;20807;-68
2022/01/02 01:56:37;;;;;;;7.93;6.33;;;;;;;12.44;78.50;101128.66;5078506;28;20169;-67
2022/01/02 01:59:03;;;;;;;7.90;6.13;;;;;;;12.35;78.99;101143.41;5080808;28;20245;-67
2022/01/02 02:01:28;;;;;;;6.83;6.13;;;;;;;12.28;79.10;101142.47;5080657;28;20397;-68
2022/01/02 02:03:53;;;;;;;7.23;6.30;;;;;;;12.46;78.70;101144.34;5080166;28;20173;-67
2022/01/02 02:06:19;;;;;;;6.27;5.63;;;;;;;12.18;79.78;101157.19;5077916;28;20223;-67
2022/01/02 02:08:44;;;;;;;6.53;5.93;;;;;;;12.03;81.51;101167.47;5078049;28;20585;-67
2022/01/02 02:11:09;;;;;;;8.17;6.23;;;;;;;11.94;82.66;101179.59;5078177;28;20173;-68
2022/01/02 02:13:37;;;;;;;6.77;5.93;;;;;;;12.08;82.56;101166.69;5077084;28;20181;-67
2022/01/02 02:16:02;;;;;;;6.53;5.93;;;;;;;11.77;84.08;101152.34;5077101;28;20181;-67
2022/01/02 02:18:28;;;;;;;8.10;6.37;;;;;;;12.10;82.59;101143.19;5077600;28;20430;-68
2022/01/02 02:20:53;;;;;;;10.17;7.03;;;;;;;12.04;83.16;101133.56;5078140;28;20234;-68
2022/01/02 02:23:18;;;;;;;7.03;6.30;;;;;;;11.77;83.56;101129.75;5078311;28;20222;-68
2022/01/02 02:25:44;;;;;;;9.80;7.30;;;;;;;12.01;83.06;101111.72;5078832;28;20242;-69
2022/01/02 02:28:14;;;;;;;7.37;6.70;;;;;;;11.82;83.80;101105.41;5077941;28;20628;-67
2022/01/02 02:30:43;;;;;;;9.07;7.00;;;;;;;11.80;84.17;101121.06;5077715;28;20488;-67
2022/01/02 02:33:09;;;;;;;9.33;7.07;;;;;;;12.05;83.75;101097.81;5081586;28;20411;-66
2022/01/02 02:35:36;;;;;;;10.27;7.57;;;;;;;11.98;83.73;101080.34;5081534;28;20415;-67
2022/01/02 02:38:07;;;;;;;7.53;6.83;;;;;;;12.13;82.79;101068.28;5080612;28;20415;-68
2022/01/02 02:40:33;;;;;;;7.70;6.90;;;;;;;12.37;82.03;101073.72;5081985;28;20433;-67
2022/01/02 02:43:06;;;;;;;8.00;7.20;;;;;;;12.02;83.14;101083.00;5081296;28;20536;-67
2022/01/02 02:51:07;;;;;;;9.20;7.17;;;;;;;11.94;84.03;101084.63;5081354;28;20418;-66
2022/01/02 02:53:35;;;;;;;7.17;6.50;;;;;;;11.91;84.51;101088.09;5080845;28;20550;-67
2022/01/02 02:56:02;;;;;;;7.60;6.90;;;;;;;11.79;84.40;101091.44;5080475;28;20435;-66
2022/01/02 02:58:41;;;;;;;8.10;7.30;;;;;;;11.80;84.62;101092.34;5081504;28;20785;-67
2022/01/02 03:01:07;;;;;;;7.80;7.10;;;;;;;11.84;84.38;101093.22;5081271;28;20438;-67
2022/01/02 03:03:33;;;;;;;10.03;7.30;;;;;;;11.88;84.58;101085.44;5080895;28;20435;-66
2022/01/02 03:05:59;;;;;;;8.37;7.23;;;;;;;11.65;85.02;101073.88;5080888;28;20408;-67
2022/01/02 03:08:26;;;;;;;12.60;8.10;;;;;;;11.69;85.16;101081.78;5080829;28;20172;-68
2022/01/02 03:10:51;;;;;;;9.37;7.60;;;;;;;11.80;84.94;101066.22;5080480;28;20438;-68
2022/01/02 03:13:16;;;;;;;8.80;7.70;;;;;;;11.66;85.90;101058.22;5080675;28;20423;-67
2022/01/02 03:15:41;;;;;;;8.67;7.03;;;;;;;12.02;83.98;101050.78;5080816;28;20188;-66
2022/01/02 03:18:07;;;;;;;10.07;7.30;;;;;;;11.93;83.84;101031.50;5081071;28;20172;-67
2022/01/02 03:20:32;;;;;;;9.03;7.57;;;;;;;12.03;83.86;101032.50;5080849;28;20173;-67
2022/01/02 03:22:58;;;;;;;8.83;7.77;;;;;;;11.73;85.09;101031.31;5080525;28;20271;-67
2022/01/02 03:25:23;;;;;;;9.47;7.30;;;;;;;11.73;84.90;101033.03;5081262;28;20552;-67
2022/01/02 03:27:48;;;;;;;9.03;8.07;;;;;;;11.98;84.21;101028.97;5080464;28;20523;-67
2022/01/02 03:30:14;;;;;;;8.53;7.63;;;;;;;11.60;85.74;101042.50;5080362;28;20169;-67
2022/01/02 03:32:39;;;;;;;9.50;7.87;;;;;;;11.59;86.09;101025.09;5080708;28;20173;-67
2022/01/02 03:35:05;;;;;;;9.10;8.30;;;;;;;11.42;86.61;101012.72;5080481;28;20554;-68
2022/01/02 03:37:33;;;;;;;9.27;8.37;;;;;;;11.58;85.66;101008.56;5080488;28;20161;-67
2022/01/02 03:39:59;;;;;;;8.90;8.00;;;;;;;11.65;85.77;101008.59;5080841;28;20393;-66
2022/01/02 03:42:25;;;;;;;8.37;7.47;;;;;;;11.61;85.89;101008.56;5079903;28;20472;-67
2022/01/02 03:44:50;;;;;;;9.40;7.60;;;;;;;11.64;85.89;100992.06;5080282;28;20394;-68
2022/01/02 03:47:15;;;;;;;11.13;8.53;;;;;;;11.84;85.27;100983.50;5080490;28;20506;-67
2022/01/02 03:49:41;;;;;;;10.30;8.70;;;;;;;11.48;86.43;100987.56;5080248;28;20177;-66
2022/01/02 03:52:06;;;;;;;10.37;8.80;;;;;;;11.36;87.88;100989.16;5080007;28;20173;-67
2022/01/02 03:54:31;;;;;;;9.67;8.67;;;;;;;11.59;86.80;101001.56;5079803;28;20225;-68
2022/01/02 03:56:57;;;;;;;10.70;9.53;;;;;;;11.58;86.68;101007.66;5080267;28;20216;-67
2022/01/02 03:59:22;;;;;;;10.60;8.83;;;;;;;11.76;86.00;100992.16;5080448;28;20187;-66
2022/01/02 04:01:48;;;;;;;10.77;9.60;;;;;;;11.92;85.83;100987.06;5080681;28;20242;-68
2022/01/02 04:04:13;;;;;;;11.70;10.50;;;;;;;11.76;86.30;100986.94;5080976;28;20157;-68
2022/01/02 04:06:38;;;;;;;12.40;9.27;;;;;;;11.66;86.02;100973.78;5080500;28;20184;-67
2022/01/02 04:09:03;;;;;;;10.83;9.37;;;;;;;11.59;86.16;100957.19;5079994;28;20238;-67
2022/01/02 04:11:29;;;;;;;11.43;10.30;;;;;;;11.36;87.35;100955.22;5079777;28;20208;-67
2022/01/02 04:13:54;;;;;;;12.73;10.03;;;;;;;11.43;88.16;100949.22;5080045;28;20165;-67
2022/01/02 04:16:19;;;;;;;11.27;10.17;;;;;;;11.49;87.67;100948.41;5079780;28;20200;-69
2022/01/02 04:18:45;;;;;;;10.70;9.60;;;;;;;11.54;87.25;100938.00;5079579;28;20177;-66
2022/01/02 04:21:10;;;;;;;11.37;10.17;;;;;;;11.56;87.65;100936.28;5080099;28;20179;-66
2022/01/02 04:23:37;;;;;;;11.80;9.93;;;;;;;11.46;87.72;100923.13;5079339;28;20184;-67
2022/01/02 04:26:03;;;;;;;12.10;10.80;;;;;;;11.62;87.10;100911.09;5078814;28;20173;-67
2022/01/02 04:28:28;;;;;;;12.20;11.03;;;;;;;11.53;87.52;100918.84;5079742;28;20422;-67
2022/01/02 04:30:53;;;;;;;11.70;10.07;;;;;;;11.33;88.50;100923.03;5079335;28;20173;-67
2022/01/02 04:33:19;;;;;;;11.27;10.03;;;;;;;11.69;87.04;100898.97;5079335;28;20188;-67
2022/01/02 04:35:44;;;;;;;13.70;10.40;;;;;;;11.38;88.12;100909.16;5079869;28;20432;-67
2022/01/02 04:38:09;;;;;;;10.93;9.93;;;;;;;11.39;87.86;100892.63;5079141;28;20266;-68
2022/01/02 04:40:34;;;;;;;11.60;10.50;;;;;;;11.48;88.01;100901.41;5079185;28;20172;-67
2022/01/02 04:43:00;;;;;;;12.90;11.27;;;;;;;11.24;88.95;100887.25;5079214;28;20169;-68
2022/01/02 04:45:25;;;;;;;14.47;12.03;;;;;;;11.44;88.85;100885.69;5079084;28;20274;-67
2022/01/02 04:47:50;;;;;;;12.67;11.30;;;;;;;11.43;88.35;100888.28;5079031;28;20200;-67
2022/01/02 04:50:16;;;;;;;16.00;12.07;;;;;;;11.56;88.29;100878.84;5079781;28;20596;-67
2022/01/02 04:52:41;;;;;;;12.80;11.53;;;;;;;11.34;88.71;100885.59;5078857;28;20219;-67
2022/01/02 04:55:07;;;;;;;13.80;11.17;;;;;;;11.42;88.43;100896.97;5078139;28;20257;-68
2022/01/02 04:57:32;;;;;;;12.87;11.57;;;;;;;11.25;88.59;100882.03;5079381;28;20173;-67
2022/01/02 04:59:57;;;;;;;14.10;12.00;;;;;;;11.48;88.55;100876.16;5078106;28;20246;-68
2022/01/02 05:02:23;;;;;;;12.57;11.37;;;;;;;11.35;88.51;100869.09;5078684;28;20260;-66
2022/01/02 05:04:48;;;;;;;16.27;11.90;;;;;;;11.28;89.79;100869.06;5079270;28;20207;-69
2022/01/02 05:07:14;;;;;;;13.30;11.57;;;;;;;11.42;88.85;100855.22;5078732;28;20227;-68
2022/01/02 05:09:40;;;;;;;13.87;11.90;;;;;;;11.63;88.05;100854.50;5078834;28;20172;-68
2022/01/02 05:12:05;;;;;;;13.73;12.33;;;;;;;11.50;88.54;100856.19;5079138;28;20411;-67
2022/01/02 05:14:31;;;;;;;15.73;12.63;;;;;;;11.40;89.21;100862.16;5078500;28;20621;-66
2022/01/02 05:16:56;;;;;;;13.83;12.43;;;;;;;11.46;88.98;100839.59;5078840;28;20179;-66
2022/01/02 05:19:21;;;;;;;15.73;13.37;;;;;;;11.78;87.29;100838.97;5078514;28;20585;-67
2022/01/02 05:21:47;;;;;;;14.13;12.63;;;;;;;11.73;88.16;100830.22;5078424;28;20169;-68
2022/01/02 05:24:12;;;;;;;13.60;12.40;;;;;;;12.00;86.92;100827.78;5078621;28;20172;-67
2022/01/02 05:26:38;;;;;;;15.60;14.00;;;;;;;11.88;86.86;100828.53;5078913;28;20277;-66
2022/01/02 05:29:04;;;;;;;14.73;13.03;;;;;;;11.44;88.19;100827.41;5078465;28;20180;-67
2022/01/02 05:31:29;;;;;;;14.90;13.30;;;;;;;11.75;87.58;100820.63;5078355;28;20270;-67
2022/01/02 05:33:54;;;;;;;18.20;16.13;;;;;;;11.77;87.75;100820.66;5078737;28;20542;-69
2022/01/02 05:36:20;;;;;;;15.47;13.57;;;;;;;11.68;87.41;100813.63;5078401;28;20176;-68
2022/01/02 05:38:45;;;;;;;15.60;14.10;;;;;;;11.66;87.62;100815.34;5078756;28;20180;-67
2022/01/02 05:41:10;;;;;;;18.00;15.30;;;;;;;11.77;87.35;100804.97;5078830;28;20179;-68
2022/01/02 05:43:35;;;;;;;16.67;14.03;;;;;;;11.60;88.25;100803.13;5078050;28;20495;-67
2022/01/02 05:46:05;;;;;;;16.40;14.07;;;;;;;11.69;87.79;100799.72;5078084;28;20176;-67
2022/01/02 05:48:31;;;;;;;15.07;13.30;;;;;;;11.55;88.36;100783.09;5078035;28;20608;-67
2022/01/02 05:50:58;;;;;;;14.97;13.47;;;;;;;11.66;87.72;100773.56;5078165;28;20457;-67
2022/01/02 05:53:24;;;;;;;14.60;12.97;;;;;;;11.67;88.00;100777.94;5077027;28;20223;-67
2022/01/02 05:55:49;;;;;;;16.40;14.67;;;;;;;11.57;88.28;100770.94;5078867;28;20423;-67
2022/01/02 05:58:14;;;;;;;14.73;12.60;;;;;;;11.79;87.10;100759.72;5077666;28;20176;-67
2022/01/02 06:00:40;;;;;;;14.77;12.40;;;;;;;11.73;87.19;100757.09;5078258;28;20164;-68
2022/01/02 06:03:05;;;;;;;15.27;12.30;;;;;;;11.76;87.17;100758.84;5078511;28;20519;-67
2022/01/02 06:05:30;;;;;;;14.23;12.83;;;;;;;12.06;86.42;100752.03;5079976;28;20180;-68
2022/01/02 06:07:55;;;;;;;15.73;12.53;;;;;;;11.72;87.35;100754.47;5082672;28;20228;-68
2022/01/02 06:10:21;;;;;;;14.70;11.67;;;;;;;11.69;87.77;100751.81;5083414;28;20165;-67
2022/01/02 06:12:46;;;;;;;15.00;12.47;;;;;;;11.57;88.59;100760.50;5082030;28;20592;-66
2022/01/02 06:15:11;;;;;;;14.47;12.00;;;;;;;11.37;88.91;100763.84;5081086;28;20172;-67
2022/01/02 06:17:37;;;;;;;17.23;11.80;;;;;;;11.54;89.51;100748.28;5082601;28;20161;-67
2022/01/02 06:20:03;;;;;;;14.67;11.90;;;;;;;11.55;89.28;100757.84;5081945;28;20442;-67
2022/01/02 06:22:28;;;;;;;14.10;11.37;;;;;;;11.88;88.33;100744.94;5064663;28;20169;-67
2022/01/02 06:24:53;;;;;;;13.33;11.60;;;;;;;11.53;89.63;100745.63;5082316;28;20161;-66
2022/01/02 06:27:19;;;;;;;12.97;11.50;;;;;;;11.28;90.25;100750.72;5081864;28;20511;-67
2022/01/02 06:29:45;;;;;;;15.00;12.70;;;;;;;11.80;88.91;100743.19;5081663;28;20172;-66
2022/01/02 06:32:10;;;;;;;13.10;11.70;;;;;;;12.04;87.40;100748.53;5082132;28;20465;-67
2022/01/02 06:34:35;;;;;;;16.70;12.57;;;;;;;11.68;89.36;100753.56;5081649;28;20212;-67
2022/01/02 06:37:01;;;;;;;13.90;11.77;;;;;;;11.54;89.47;100747.41;5081712;28;20173;-67
2022/01/02 06:39:26;;;;;;;16.93;12.40;;;;;;;11.32;90.82;100743.78;5082346;28;20180;-66
2022/01/02 06:41:51;;;;;;;18.80;13.13;;;;;;;11.39;90.79;100753.41;5080665;28;20188;-67
2022/01/02 06:44:16;;;;;;;17.27;12.97;;;;;;;11.74;90.38;100745.75;5080668;28;20418;-68
2022/01/02 06:46:42;;;;;;;15.57;12.30;;;;;;;11.42;90.57;100751.69;5084618;28;20203;-67
2022/01/02 06:49:07;;;;;;;16.30;13.13;;;;;;;11.50;91.15;100753.47;5082150;28;20291;-68
2022/01/02 06:51:32;;;;;;;17.40;13.63;;;;;;;11.45;91.51;100750.84;5081183;28;20176;-67
2022/01/02 06:53:58;;;;;;;16.57;12.90;;;;;;;11.72;90.59;100747.50;5081476;28;20521;-67
2022/01/02 06:56:23;;;;;;;14.20;12.70;;;;;;;11.71;89.86;100750.13;5083932;28;20277;-67
2022/01/02 06:58:48;;;;;;;14.73;13.27;;;;;;;11.36;92.03;100743.81;5080783;28;20192;-67
2022/01/02 07:01:14;;;;;;;15.03;13.20;;;;;;;11.84;89.73;100737.97;5081574;28;20173;-66
2022/01/02 07:03:39;;;;;;;15.03;13.43;;;;;;;11.56;90.41;100746.53;5080666;28;20250;-67
2022/01/02 07:06:04;;;;;;;20.80;14.20;;;;;;;11.43;91.40;100742.09;5081844;28;20169;-66
2022/01/02 07:08:29;;;;;;;15.30;13.67;;;;;;;11.25;92.24;100733.28;5081183;28;20179;-67
2022/01/02 07:10:55;;;;;;;16.73;13.13;;;;;;;11.34;92.44;100727.28;5081000;28;20173;-67
2022/01/02 07:13:21;;;;;;;16.50;13.20;;;;;;;11.52;91.40;100723.03;5081632;28;20177;-67
2022/01/02 07:15:47;;;;;;;19.27;13.47;;;;;;;11.42;92.22;100725.59;5080632;28;20435;-67
2022/01/02 07:18:12;;;;;;;17.80;14.60;;;;;;;11.61;91.07;100720.47;5080707;28;20427;-66
2022/01/02 07:20:37;;;;;;;15.37;13.30;;;;;;;11.29;91.65;100719.41;5081414;28;20169;-68
2022/01/02 07:23:03;;;;;;;16.97;14.07;;;;;;;11.57;91.27;100711.75;5080506;28;20476;-67
2022/01/02 07:25:28;;;;;;;18.47;13.17;;;;;;;11.67;90.55;100719.63;5080600;28;20180;-67
2022/01/02 07:27:53;;;;;;;22.00;12.33;;;;;;;11.72;91.08;100713.56;5081128;28;20228;-67
2022/01/02 07:30:19;;;;;;;15.70;13.07;;;;;;;11.78;90.29;100716.19;5080110;28;20251;-67
2022/01/02 07:32:44;;;;;;;14.93;13.33;;;;;;;11.87;89.77;100714.50;5080354;28;20496;-67
2022/01/02 07:35:09;;;;;;;16.60;13.20;;;;;;;11.72;90.81;100716.16;5080448;28;20173;-67
2022/01/02 07:37:35;;;;;;;13.47;12.10;;;;;;;11.76;89.74;100710.09;5080483;28;20264;-67
2022/01/02 07:40:01;;;;;;;19.03;13.70;;;;;;;11.79;90.33;100699.63;5079812;28;20229;-67
2022/01/02 07:42:26;;;;;;;15.97;12.33;;;;;;;11.72;91.39;100702.25;5080999;28;20443;-67
2022/01/02 07:44:52;;;;;;;15.97;13.10;;;;;;;11.77;90.47;100683.09;5080250;28;20534;-67
2022/01/02 07:47:17;;;;;;;14.33;12.83;;;;;;;11.62;91.47;100696.97;5080510;28;20228;-67
2022/01/02 07:49:42;;;;;;;14.07;12.10;;;;;;;11.69;91.08;100702.22;5080974;28;20190;-69
2022/01/02 07:52:07;;;;;;;14.17;11.90;;;;;;;11.72;92.26;100695.28;5080026;28;20248;-68
2022/01/02 07:54:33;;;;;;;17.27;12.40;;;;;;;11.89;91.17;100684.91;5079825;28;20646;-67
2022/01/02 07:56:58;;;;;;;16.53;12.13;;;;;;;11.89;91.41;100682.28;5080604;28;20223;-67
2022/01/02 07:59:23;;;;;;;18.43;13.43;;;;;;;12.18;89.61;100685.84;5079959;28;20169;-67
2022/01/02 08:01:49;;;;;;;15.90;11.90;;;;;;;12.06;90.17;100674.50;5079853;28;20165;-69
2022/01/02 08:04:14;;;;;;;20.07;12.50;;;;;;;12.25;90.08;100671.94;5080351;28;20173;-67
2022/01/02 08:06:39;;;;;;;16.60;12.40;;;;;;;12.20;89.96;100664.06;5079823;28;20577;-67
2022/01/02 08:09:04;;;;;;;17.30;11.43;;;;;;;12.12;90.32;100661.47;5082680;28;20169;-68
2022/01/02 08:11:30;;;;;;;19.50;12.80;;;;;;;12.26;89.73;100653.66;5081866;28;20176;-67
2022/01/02 08:13:55;;;;;;;17.33;11.67;;;;;;;12.49;88.85;100654.53;5080349;28;20196;-67
2022/01/02 08:16:21;;;;;;;20.33;13.13;;;;;;;12.34;89.34;100653.66;5079914;28;20161;-67
2022/01/02 08:18:46;;;;;;;18.30;10.70;;;;;;;12.23;89.54;100650.16;5080166;28;20553;-67
2022/01/02 08:21:11;;;;;;;14.57;10.10;;;;;;;12.16;89.37;100638.81;5079889;28;20183;-66
2022/01/02 08:23:36;;;;;;;14.50;10.40;;;;;;;12.46;88.99;100634.47;5079596;28;20215;-68
2022/01/02 08:26:02;;;;;;;13.77;11.07;;;;;;;12.11;90.44;100636.22;5079148;28;20199;-67
2022/01/02 08:28:28;;;;;;;12.00;10.10;;;;;;;12.49;88.85;100618.81;5078967;28;20208;-67
2022/01/02 08:30:53;;;;;;;11.57;10.37;;;;;;;12.61;88.06;100612.69;5079012;28;20512;-67
2022/01/02 08:33:19;;;;;;;11.10;10.00;;;;;;;12.37;89.78;100610.97;5079639;28;20207;-67
2022/01/02 08:35:45;;;;;;;10.30;9.13;;;;;;;12.13;90.54;100608.31;5079325;28;20169;-67
2022/01/02 08:38:11;;;;;;;11.50;9.33;;;;;;;12.08;91.31;100604.84;5079185;28;20180;-67
2022/01/02 08:40:37;;;;;;;10.70;9.20;;;;;;;12.23;90.29;100598.75;5079772;28;20417;-68
2022/01/02 08:43:02;;;;;;;11.37;9.37;;;;;;;12.46;90.19;100593.53;5079043;28;20418;-67
2022/01/02 08:45:28;;;;;;;9.83;8.67;;;;;;;12.61;89.50;100586.53;5079134;28;20462;-67
2022/01/02 08:47:53;;;;;;;9.63;8.20;;;;;;;12.35;90.02;100589.16;5079499;28;20284;-69
2022/01/02 08:50:18;;;;;;;11.47;9.17;;;;;;;12.78;88.53;100570.81;5079084;28;20180;-69
2022/01/02 08:52:44;;;;;;;11.63;8.73;;;;;;;12.61;89.04;100556.03;5077915;28;20165;-67
2022/01/02 08:55:09;;;;;;;10.50;8.10;;;;;;;12.52;89.47;100561.28;5079226;28;20590;-67
2022/01/02 08:57:34;;;;;;;12.20;8.70;;;;;;;12.67;88.60;100544.69;5078848;28;20401;-66
2022/01/02 09:00:00;;;;;;;12.97;8.07;;;;;;;12.76;88.29;100542.06;5078787;28;20187;-67
2022/01/02 09:02:25;;;;;;;11.30;7.40;;;;;;;12.47;89.72;100536.88;5079108;28;20169;-67
2022/01/02 09:04:50;;;;;;;8.93;8.03;;;;;;;12.71;88.15;100535.94;5078750;28;20176;-67
2022/01/02 09:07:16;;;;;;;8.80;7.87;;;;;;;12.45;89.55;100536.00;5078540;28;20212;-67
2022/01/02 09:09:41;;;;;;;11.20;8.70;;;;;;;12.52;89.05;100529.91;5079147;28;20523;-67
2022/01/02 09:12:07;;;;;;;10.83;7.50;;;;;;;12.86;87.44;100521.09;5078383;28;20192;-67
2022/01/02 09:14:33;;;;;;;10.93;7.40;;;;;;;12.69;88.05;100516.78;5077781;28;20263;-67
2022/01/02 09:16:58;;;;;;;10.40;6.83;;;;;;;12.79;86.80;100515.88;5078965;28;20839;-66
2022/01/02 09:19:23;;;;;;;11.57;6.83;;;;;;;12.54;87.45;100520.31;5078521;28;20176;-66
2022/01/02 09:21:49;;;;;;;11.50;7.27;;;;;;;12.82;86.77;100506.28;5078525;28;20165;-67
2022/01/02 09:24:14;;;;;;;11.00;6.90;;;;;;;12.83;86.38;100502.78;5078700;28;20211;-67
2022/01/02 09:26:39;;;;;;;10.90;6.70;;;;;;;12.70;86.83;100500.19;5077539;28;20242;-66
2022/01/02 09:29:05;;;;;;;8.00;7.20;;;;;;;12.81;85.76;100502.78;5078308;28;20165;-67
2022/01/02 09:31:30;;;;;;;16.30;6.80;;;;;;;12.91;85.67;100495.78;5079015;28;20421;-67
2022/01/02 09:33:55;;;;;;;7.40;6.43;;;;;;;12.94;85.27;100488.78;5078208;28;20230;-66
2022/01/02 09:36:20;;;;;;;8.83;6.93;;;;;;;12.86;85.07;100485.34;5078351;28;20173;-67
2022/01/02 09:38:47;;;;;;;9.17;6.33;;;;;;;12.91;84.27;100478.34;5078818;28;20165;-67
2022/01/02 09:41:13;;;;;;;8.00;6.03;;;;;;;12.85;84.30;100464.41;5077995;28;20507;-67
2022/01/02 09:43:38;;;;;;;8.93;6.80;;;;;;;13.09;82.65;100458.19;5077592;28;20490;-67
2022/01/02 09:46:03;;;;;;;12.60;7.17;;;;;;;13.26;82.38;100468.56;5078087;28;20473;-67
2022/01/02 09:48:29;;;;;;;8.23;5.93;;;;;;;12.95;83.77;100466.13;5077888;28;20200;-67
2022/01/02 09:50:56;;;;;;;7.43;6.47;;;;;;;12.90;83.49;100466.13;5077930;28;20169;-67
2022/01/02 09:53:22;;;;;;;8.43;6.20;;;;;;;12.86;83.65;100455.69;5078189;28;20461;-67
2022/01/02 09:55:48;;;;;;;9.00;6.70;;;;;;;13.07;83.01;100447.75;5077842;28;20417;-68
2022/01/02 09:58:14;;;;;;;9.03;6.60;;;;;;;12.93;83.56;100431.22;5078135;28;20395;-67
2022/01/02 10:00:43;;;;;;;9.63;5.80;;;;;;;12.75;83.44;100433.06;5077998;28;20164;-67
2022/01/02 10:03:10;;;;;;;8.20;6.40;;;;;;;13.06;82.90;100432.06;5077112;28;20164;-67
2022/01/02 10:05:52;;;;;;;8.60;5.83;;;;;;;12.88;83.31;100427.75;5078479;28;20386;-67
2022/01/02 10:08:27;;;;;;;7.70;6.07;;;;;;;12.89;82.54;100422.53;5077928;28;20471;-67
2022/01/02 10:11:10;;;;;;;7.60;6.03;;;;;;;13.19;82.00;100417.13;5077932;28;20563;-67
2022/01/02 10:13:40;;;;;;;11.80;7.17;;;;;;;12.98;83.23;100419.00;5078551;28;20644;-67
2022/01/02 10:16:26;;;;;;;8.60;5.90;;;;;;;12.86;84.24;100408.59;5079568;28;20415;-67
2022/01/02 10:18:53;;;;;;;7.87;5.77;;;;;;;13.10;82.83;100408.47;5067744;28;20911;-67
2022/01/02 10:21:35;;;;;;;9.73;6.10;;;;;;;12.93;83.38;100411.16;5077096;28;20411;-67
2022/01/02 10:24:16;;;;;;;8.90;5.50;;;;;;;12.71;85.14;100399.94;5077483;28;20446;-67
2022/01/02 10:27:02;;;;;;;8.30;6.50;;;;;;;12.58;85.43;100409.59;5077952;28;20708;-66
2022/01/02 10:29:38;;;;;;;6.67;5.77;;;;;;;12.73;84.99;100392.97;5077349;28;20445;-67
2022/01/02 10:32:37;;;;;;;7.00;5.50;;;;;;;12.65;85.13;100392.16;5077659;28;20811;-67
2022/01/02 10:35:21;;;;;;;9.80;7.00;;;;;;;12.93;84.62;100392.00;5077431;28;20386;-70
2022/01/02 10:37:54;;;;;;;6.70;5.80;;;;;;;12.54;85.36;100378.22;5077241;28;20834;-68
2022/01/02 10:40:34;;;;;;;8.60;6.50;;;;;;;12.85;84.96;100378.09;5077597;28;20403;-68
2022/01/02 10:43:08;;;;;;;8.57;5.80;;;;;;;12.75;85.40;100372.91;5077500;28;20702;-67
2022/01/02 10:45:43;;;;;;;11.50;5.40;;;;;;;12.87;84.68;100365.88;5077468;28;20439;-67
2022/01/02 10:48:11;;;;;;;11.47;5.70;;;;;;;12.69;85.49;100375.56;5077581;28;20725;-67
2022/01/02 10:50:38;;;;;;;7.00;5.63;;;;;;;12.66;85.50;100359.84;5077393;28;20497;-67
2022/01/02 10:53:16;;;;;;;7.10;6.10;;;;;;;12.69;85.51;100365.09;5081047;28;20455;-67
2022/01/02 10:55:44;;;;;;;6.90;5.60;;;;;;;12.41;87.41;100344.28;5085523;28;20456;-67
2022/01/02 10:58:10;;;;;;;8.53;5.90;;;;;;;12.57;87.22;100359.91;5082261;28;20414;-67
2022/01/02 11:00:36;;;;;;;7.77;6.07;;;;;;;12.59;87.13;100358.16;5080864;28;20664;-67
2022/01/02 11:03:04;;;;;;;7.30;5.53;;;;;;;12.63;86.87;100349.44;5080223;28;20407;-68
2022/01/02 11:05:30;;;;;;;9.20;5.70;;;;;;;12.66;87.06;100344.16;5080623;28;20302;-68
2022/01/02 11:08:00;;;;;;;6.50;5.90;;;;;;;12.74;86.87;100341.53;5080047;28;20466;-67
2022/01/02 11:10:27;;;;;;;6.13;5.47;;;;;;;12.47;87.31;100332.94;5080830;28;20454;-67
2022/01/02 11:12:53;;;;;;;8.50;6.50;;;;;;;12.77;86.94;100331.91;5081012;28;20494;-67
2022/01/02 11:15:20;;;;;;;7.43;5.97;;;;;;;12.74;86.43;100336.28;5080734;28;20716;-67
2022/01/02 11:17:46;;;;;;;6.60;5.50;;;;;;;12.58;87.17;100319.81;5080651;28;20674;-67
2022/01/02 11:20:20;;;;;;;7.50;6.27;;;;;;;12.87;86.04;100318.78;5081113;28;20403;-67
2022/01/02 11:23:04;;;;;;;8.63;6.13;;;;;;;12.50;87.00;100314.59;5080509;28;20413;-67